sensor_id;sensor_type;location;lat;lon;timestamp;P1;durP1;ratioP1;P2;durP2;ratioP2
4132;SDS011;2080;51.038;7.008;2023-04-27T00:01:13;442.60;;;357.92;;
4132;SDS011;2080;51.038;7.008;2023-04-27T00:03:41;430.33;;;341.80;;
4132;SDS011;2080;51.038;7.008;2023-04-27T00:06:07;449.10;;;386.47;;
4132;SDS011;2080;51.038;7.008;2023-04-27T00:08:32;517.15;;;464.08;;
4132;SDS011;2080;51.038;7.008;2023-04-27T00:10:58;429.83;;;341.87;;
4132;SDS011;2080;51.038;7.008;2023-04-27T00:13:23;564.58;;;509.17;;
4132;SDS011;2080;51.038;7.008;2023-04-27T00:15:49;424.93;;;326.87;;
4132;SDS011;2080;51.038;7.008;2023-04-27T00:18:14;533.78;;;479.63;;
4132;SDS011;2080;51.038;7.008;2023-04-27T00:20:40;494.17;;;442.17;;
4132;SDS011;2080;51.038;7.008;2023-04-27T00:23:05;440.10;;;366.20;;
4132;SDS011;2080;51.038;7.008;2023-04-27T00:25:31;1007.37;;;921.03;;
4132;SDS011;2080;51.038;7.008;2023-04-27T00:27:58;1011.08;;;925.67;;
4132;SDS011;2080;51.038;7.008;2023-04-27T00:30:24;1007.13;;;922.53;;
4132;SDS011;2080;51.038;7.008;2023-04-27T00:32:49;997.40;;;912.80;;
4132;SDS011;2080;51.038;7.008;2023-04-27T00:35:15;1064.23;;;974.10;;
4132;SDS011;2080;51.038;7.008;2023-04-27T00:37:40;1010.00;;;923.08;;
4132;SDS011;2080;51.038;7.008;2023-04-27T00:40:08;1019.90;;;933.03;;
4132;SDS011;2080;51.038;7.008;2023-04-27T00:42:34;965.23;;;883.27;;
4132;SDS011;2080;51.038;7.008;2023-04-27T00:45:02;996.88;;;912.30;;
4132;SDS011;2080;51.038;7.008;2023-04-27T00:47:30;628.57;;;570.13;;
4132;SDS011;2080;51.038;7.008;2023-04-27T00:49:56;722.58;;;658.10;;
4132;SDS011;2080;51.038;7.008;2023-04-27T00:52:30;760.40;;;694.40;;
4132;SDS011;2080;51.038;7.008;2023-04-27T00:54:58;502.27;;;449.37;;
4132;SDS011;2080;51.038;7.008;2023-04-27T00:57:24;445.52;;;355.70;;
4132;SDS011;2080;51.038;7.008;2023-04-27T00:59:49;456.53;;;397.30;;
4132;SDS011;2080;51.038;7.008;2023-04-27T01:02:15;536.17;;;482.45;;
4132;SDS011;2080;51.038;7.008;2023-04-27T01:04:43;445.80;;;373.70;;
4132;SDS011;2080;51.038;7.008;2023-04-27T01:07:09;437.50;;;342.65;;
4132;SDS011;2080;51.038;7.008;2023-04-27T01:09:34;524.97;;;471.47;;
4132;SDS011;2080;51.038;7.008;2023-04-27T01:12:00;688.13;;;626.67;;
4132;SDS011;2080;51.038;7.008;2023-04-27T01:14:29;941.88;;;860.78;;
4132;SDS011;2080;51.038;7.008;2023-04-27T01:16:54;995.33;;;909.53;;
4132;SDS011;2080;51.038;7.008;2023-04-27T01:19:22;873.30;;;798.78;;
4132;SDS011;2080;51.038;7.008;2023-04-27T01:21:47;1044.87;;;956.40;;
4132;SDS011;2080;51.038;7.008;2023-04-27T01:24:12;941.73;;;861.97;;
4132;SDS011;2080;51.038;7.008;2023-04-27T01:26:38;853.00;;;779.80;;
4132;SDS011;2080;51.038;7.008;2023-04-27T01:29:03;963.97;;;882.00;;
4132;SDS011;2080;51.038;7.008;2023-04-27T01:34:06;1066.57;;;973.63;;
4132;SDS011;2080;51.038;7.008;2023-04-27T01:36:34;988.97;;;903.67;;
4132;SDS011;2080;51.038;7.008;2023-04-27T01:39:00;998.45;;;912.97;;
4132;SDS011;2080;51.038;7.008;2023-04-27T01:41:28;1036.97;;;947.77;;
4132;SDS011;2080;51.038;7.008;2023-04-27T01:43:53;1060.57;;;970.20;;
4132;SDS011;2080;51.038;7.008;2023-04-27T01:46:19;1095.10;;;999.10;;
4132;SDS011;2080;51.038;7.008;2023-04-27T01:48:44;1188.90;;;999.90;;
4132;SDS011;2080;51.038;7.008;2023-04-27T01:51:13;1292.88;;;999.90;;
4132;SDS011;2080;51.038;7.008;2023-04-27T01:53:40;1999.90;;;999.90;;
4132;SDS011;2080;51.038;7.008;2023-04-27T01:56:05;1999.90;;;999.90;;
4132;SDS011;2080;51.038;7.008;2023-04-27T01:58:30;1999.90;;;999.90;;
4132;SDS011;2080;51.038;7.008;2023-04-27T02:00:58;1123.32;;;997.05;;
4132;SDS011;2080;51.038;7.008;2023-04-27T02:03:24;1653.03;;;951.43;;
4132;SDS011;2080;51.038;7.008;2023-04-27T02:05:50;1999.90;;;999.90;;
4132;SDS011;2080;51.038;7.008;2023-04-27T02:08:15;1156.93;;;999.90;;
4132;SDS011;2080;51.038;7.008;2023-04-27T02:10:45;1999.90;;;999.90;;
4132;SDS011;2080;51.038;7.008;2023-04-27T02:13:13;1315.30;;;999.90;;
4132;SDS011;2080;51.038;7.008;2023-04-27T02:15:38;1346.72;;;999.90;;
4132;SDS011;2080;51.038;7.008;2023-04-27T02:18:06;1407.07;;;817.97;;
4132;SDS011;2080;51.038;7.008;2023-04-27T02:20:32;1204.17;;;999.90;;
4132;SDS011;2080;51.038;7.008;2023-04-27T02:22:58;1256.00;;;999.90;;
4132;SDS011;2080;51.038;7.008;2023-04-27T02:25:23;1309.78;;;999.90;;
4132;SDS011;2080;51.038;7.008;2023-04-27T03:21:37;1206.05;;;999.90;;
4132;SDS011;2080;51.038;7.008;2023-04-27T03:24:02;1207.20;;;999.90;;
4132;SDS011;2080;51.038;7.008;2023-04-27T03:26:30;1205.40;;;999.90;;
4132;SDS011;2080;51.038;7.008;2023-04-27T03:28:56;1298.60;;;999.90;;
4132;SDS011;2080;51.038;7.008;2023-04-27T03:31:21;1300.50;;;999.90;;
4132;SDS011;2080;51.038;7.008;2023-04-27T03:33:47;1303.30;;;999.90;;
4132;SDS011;2080;51.038;7.008;2023-04-27T03:36:12;1288.97;;;999.90;;
4132;SDS011;2080;51.038;7.008;2023-04-27T03:38:40;1289.10;;;999.90;;
4132;SDS011;2080;51.038;7.008;2023-04-27T03:41:07;1275.28;;;999.90;;
4132;SDS011;2080;51.038;7.008;2023-04-27T03:43:35;1295.97;;;999.90;;
4132;SDS011;2080;51.038;7.008;2023-04-27T03:46:01;1531.03;;;999.90;;
4132;SDS011;2080;51.038;7.008;2023-04-27T03:48:26;1278.93;;;999.90;;
4132;SDS011;2080;51.038;7.008;2023-04-27T03:50:51;1446.47;;;999.90;;
4132;SDS011;2080;51.038;7.008;2023-04-27T03:53:17;1345.40;;;999.90;;
4132;SDS011;2080;51.038;7.008;2023-04-27T03:55:43;1284.90;;;948.05;;
4132;SDS011;2080;51.038;7.008;2023-04-27T03:58:09;1051.03;;;918.95;;
4132;SDS011;2080;51.038;7.008;2023-04-27T04:00:35;1999.90;;;999.90;;
4132;SDS011;2080;51.038;7.008;2023-04-27T04:03:05;1999.90;;;999.90;;
4132;SDS011;2080;51.038;7.008;2023-04-27T04:05:31;1143.03;;;999.90;;
4132;SDS011;2080;51.038;7.008;2023-04-27T04:07:57;1688.32;;;890.70;;
4132;SDS011;2080;51.038;7.008;2023-04-27T04:10:24;1999.90;;;999.90;;
4132;SDS011;2080;51.038;7.008;2023-04-27T04:12:50;1999.90;;;999.90;;
4132;SDS011;2080;51.038;7.008;2023-04-27T04:15:16;1999.90;;;999.90;;
4132;SDS011;2080;51.038;7.008;2023-04-27T04:17:44;1999.90;;;999.90;;
4132;SDS011;2080;51.038;7.008;2023-04-27T04:20:15;1999.90;;;999.90;;
4132;SDS011;2080;51.038;7.008;2023-04-27T04:22:40;1999.90;;;999.90;;
4132;SDS011;2080;51.038;7.008;2023-04-27T04:25:11;1999.90;;;999.90;;
4132;SDS011;2080;51.038;7.008;2023-04-27T04:27:37;1999.90;;;999.90;;
4132;SDS011;2080;51.038;7.008;2023-04-27T04:30:03;1264.25;;;999.90;;
4132;SDS011;2080;51.038;7.008;2023-04-27T04:32:30;1999.90;;;999.90;;
4132;SDS011;2080;51.038;7.008;2023-04-27T04:35:04;1999.90;;;999.90;;
4132;SDS011;2080;51.038;7.008;2023-04-27T04:37:31;1267.65;;;932.17;;
4132;SDS011;2080;51.038;7.008;2023-04-27T04:40:02;1109.60;;;987.47;;
4132;SDS011;2080;51.038;7.008;2023-04-27T04:42:33;1510.35;;;999.90;;
4132;SDS011;2080;51.038;7.008;2023-04-27T04:44:59;1315.65;;;999.90;;
4132;SDS011;2080;51.038;7.008;2023-04-27T04:47:25;1279.70;;;999.90;;
4132;SDS011;2080;51.038;7.008;2023-04-27T04:49:51;1239.80;;;999.90;;
4132;SDS011;2080;51.038;7.008;2023-04-27T04:52:18;1241.90;;;999.90;;
4132;SDS011;2080;51.038;7.008;2023-04-27T04:54:44;1214.43;;;999.90;;
4132;SDS011;2080;51.038;7.008;2023-04-27T04:57:10;1175.80;;;999.90;;
4132;SDS011;2080;51.038;7.008;2023-04-27T04:59:35;1171.75;;;999.90;;
4132;SDS011;2080;51.038;7.008;2023-04-27T05:02:00;1176.27;;;999.90;;
4132;SDS011;2080;51.038;7.008;2023-04-27T05:04:26;1138.13;;;999.90;;
4132;SDS011;2080;51.038;7.008;2023-04-27T05:06:51;1142.23;;;999.90;;
4132;SDS011;2080;51.038;7.008;2023-04-27T05:09:17;1158.03;;;999.90;;
4132;SDS011;2080;51.038;7.008;2023-04-27T05:11:42;1131.63;;;999.90;;
4132;SDS011;2080;51.038;7.008;2023-04-27T05:14:07;1092.60;;;996.93;;
4132;SDS011;2080;51.038;7.008;2023-04-27T05:16:33;1074.27;;;978.87;;
4132;SDS011;2080;51.038;7.008;2023-04-27T05:18:58;1040.83;;;948.37;;
4132;SDS011;2080;51.038;7.008;2023-04-27T05:21:23;1052.70;;;961.13;;
4132;SDS011;2080;51.038;7.008;2023-04-27T05:23:49;1055.23;;;965.73;;
4132;SDS011;2080;51.038;7.008;2023-04-27T05:26:17;982.03;;;897.50;;
4132;SDS011;2080;51.038;7.008;2023-04-27T05:28:43;845.80;;;772.37;;
4132;SDS011;2080;51.038;7.008;2023-04-27T05:31:09;855.97;;;781.33;;
4132;SDS011;2080;51.038;7.008;2023-04-27T05:33:34;813.05;;;742.75;;
4132;SDS011;2080;51.038;7.008;2023-04-27T05:36:00;810.90;;;741.00;;
4132;SDS011;2080;51.038;7.008;2023-04-27T05:38:25;640.93;;;581.63;;
4132;SDS011;2080;51.038;7.008;2023-04-27T05:40:54;664.43;;;603.17;;
4132;SDS011;2080;51.038;7.008;2023-04-27T05:43:23;671.83;;;611.25;;
4132;SDS011;2080;51.038;7.008;2023-04-27T05:45:49;593.08;;;536.45;;
4132;SDS011;2080;51.038;7.008;2023-04-27T05:48:15;576.50;;;520.70;;
4132;SDS011;2080;51.038;7.008;2023-04-27T05:50:46;458.15;;;405.77;;
4132;SDS011;2080;51.038;7.008;2023-04-27T05:53:12;441.27;;;369.27;;
4132;SDS011;2080;51.038;7.008;2023-04-27T05:55:37;430.23;;;347.50;;
4132;SDS011;2080;51.038;7.008;2023-04-27T05:58:05;433.42;;;350.65;;
4132;SDS011;2080;51.038;7.008;2023-04-27T06:00:31;434.73;;;344.63;;
4132;SDS011;2080;51.038;7.008;2023-04-27T06:02:56;423.10;;;329.57;;
4132;SDS011;2080;51.038;7.008;2023-04-27T06:05:24;419.30;;;318.45;;
4132;SDS011;2080;51.038;7.008;2023-04-27T06:07:51;431.70;;;343.48;;
4132;SDS011;2080;51.038;7.008;2023-04-27T06:10:16;456.38;;;391.15;;
4132;SDS011;2080;51.038;7.008;2023-04-27T06:12:42;437.87;;;349.90;;
4132;SDS011;2080;51.038;7.008;2023-04-27T06:15:12;451.48;;;399.25;;
4132;SDS011;2080;51.038;7.008;2023-04-27T06:17:40;514.10;;;459.77;;
4132;SDS011;2080;51.038;7.008;2023-04-27T06:20:08;761.40;;;693.22;;
4132;SDS011;2080;51.038;7.008;2023-04-27T06:22:34;492.15;;;438.95;;
4132;SDS011;2080;51.038;7.008;2023-04-27T06:25:03;447.70;;;391.27;;
4132;SDS011;2080;51.038;7.008;2023-04-27T06:27:29;558.08;;;501.50;;
4132;SDS011;2080;51.038;7.008;2023-04-27T06:29:55;655.23;;;593.53;;
4132;SDS011;2080;51.038;7.008;2023-04-27T06:32:20;728.67;;;662.13;;
4132;SDS011;2080;51.038;7.008;2023-04-27T06:34:46;807.47;;;736.87;;
4132;SDS011;2080;51.038;7.008;2023-04-27T06:37:11;820.83;;;749.47;;
4132;SDS011;2080;51.038;7.008;2023-04-27T06:39:39;802.53;;;731.15;;
4132;SDS011;2080;51.038;7.008;2023-04-27T06:42:04;848.67;;;775.33;;
4132;SDS011;2080;51.038;7.008;2023-04-27T06:44:29;942.23;;;863.10;;
4132;SDS011;2080;51.038;7.008;2023-04-27T06:46:57;972.20;;;889.93;;
4132;SDS011;2080;51.038;7.008;2023-04-27T06:49:25;984.65;;;901.10;;
4132;SDS011;2080;51.038;7.008;2023-04-27T06:51:51;993.13;;;908.93;;
4132;SDS011;2080;51.038;7.008;2023-04-27T06:54:18;1255.73;;;999.90;;
4132;SDS011;2080;51.038;7.008;2023-04-27T06:56:44;1031.53;;;943.22;;
4132;SDS011;2080;51.038;7.008;2023-04-27T06:59:09;1146.90;;;999.90;;
4132;SDS011;2080;51.038;7.008;2023-04-27T07:01:38;1081.10;;;987.27;;
4132;SDS011;2080;51.038;7.008;2023-04-27T07:04:03;1181.18;;;999.90;;
4132;SDS011;2080;51.038;7.008;2023-04-27T07:06:29;1243.25;;;999.90;;
4132;SDS011;2080;51.038;7.008;2023-04-27T07:08:55;1434.35;;;999.90;;
4132;SDS011;2080;51.038;7.008;2023-04-27T07:11:23;1271.80;;;999.90;;
4132;SDS011;2080;51.038;7.008;2023-04-27T07:13:49;1268.10;;;999.90;;
4132;SDS011;2080;51.038;7.008;2023-04-27T07:16:14;1391.87;;;999.90;;
4132;SDS011;2080;51.038;7.008;2023-04-27T07:18:40;1503.72;;;999.90;;
4132;SDS011;2080;51.038;7.008;2023-04-27T07:21:05;1606.88;;;999.90;;
4132;SDS011;2080;51.038;7.008;2023-04-27T07:23:31;1507.77;;;999.90;;
4132;SDS011;2080;51.038;7.008;2023-04-27T07:25:59;1279.60;;;999.90;;
4132;SDS011;2080;51.038;7.008;2023-04-27T07:28:27;1402.80;;;999.90;;
4132;SDS011;2080;51.038;7.008;2023-04-27T07:30:53;1418.53;;;999.90;;
4132;SDS011;2080;51.038;7.008;2023-04-27T07:33:18;1374.27;;;999.90;;
4132;SDS011;2080;51.038;7.008;2023-04-27T07:35:44;1390.83;;;999.90;;
4132;SDS011;2080;51.038;7.008;2023-04-27T07:38:09;704.50;;;636.00;;
4132;SDS011;2080;51.038;7.008;2023-04-27T07:40:35;1014.63;;;922.03;;
4132;SDS011;2080;51.038;7.008;2023-04-27T07:43:03;675.67;;;609.03;;
4132;SDS011;2080;51.038;7.008;2023-04-27T07:45:29;634.28;;;570.38;;
4132;SDS011;2080;51.038;7.008;2023-04-27T07:48:03;358.90;;;111.35;;
4132;SDS011;2080;51.038;7.008;2023-04-27T07:50:29;370.38;;;136.30;;
4132;SDS011;2080;51.038;7.008;2023-04-27T07:52:56;359.00;;;123.80;;
4132;SDS011;2080;51.038;7.008;2023-04-27T07:55:24;368.77;;;144.40;;
4132;SDS011;2080;51.038;7.008;2023-04-27T07:57:54;425.52;;;247.13;;
4132;SDS011;2080;51.038;7.008;2023-04-27T08:00:22;391.13;;;180.73;;
4132;SDS011;2080;51.038;7.008;2023-04-27T08:02:49;752.67;;;683.50;;
4132;SDS011;2080;51.038;7.008;2023-04-27T08:05:17;418.77;;;258.48;;
4132;SDS011;2080;51.038;7.008;2023-04-27T08:07:42;848.40;;;773.15;;
4132;SDS011;2080;51.038;7.008;2023-04-27T08:10:08;548.83;;;492.13;;
4132;SDS011;2080;51.038;7.008;2023-04-27T08:12:33;1042.47;;;952.00;;
4132;SDS011;2080;51.038;7.008;2023-04-27T08:14:59;1032.20;;;943.28;;
4132;SDS011;2080;51.038;7.008;2023-04-27T08:17:24;1085.67;;;991.20;;
4132;SDS011;2080;51.038;7.008;2023-04-27T08:19:50;1129.05;;;999.90;;
4132;SDS011;2080;51.038;7.008;2023-04-27T08:22:16;1109.43;;;999.90;;
4132;SDS011;2080;51.038;7.008;2023-04-27T08:24:42;1137.93;;;999.90;;
4132;SDS011;2080;51.038;7.008;2023-04-27T08:27:07;1221.73;;;999.90;;
4132;SDS011;2080;51.038;7.008;2023-04-27T08:29:33;963.47;;;878.80;;
4132;SDS011;2080;51.038;7.008;2023-04-27T08:31:59;1048.82;;;955.60;;
4132;SDS011;2080;51.038;7.008;2023-04-27T08:34:26;1025.93;;;935.25;;
4132;SDS011;2080;51.038;7.008;2023-04-27T08:36:52;1003.00;;;912.70;;
4132;SDS011;2080;51.038;7.008;2023-04-27T08:39:21;1122.53;;;999.90;;
4132;SDS011;2080;51.038;7.008;2023-04-27T08:41:49;1193.20;;;999.90;;
4132;SDS011;2080;51.038;7.008;2023-04-27T08:44:17;1188.78;;;999.90;;
4132;SDS011;2080;51.038;7.008;2023-04-27T08:46:42;1131.93;;;999.90;;
4132;SDS011;2080;51.038;7.008;2023-04-27T08:49:08;1127.20;;;999.90;;
4132;SDS011;2080;51.038;7.008;2023-04-27T08:51:34;1110.82;;;999.90;;
4132;SDS011;2080;51.038;7.008;2023-04-27T08:53:59;1096.43;;;998.27;;
4132;SDS011;2080;51.038;7.008;2023-04-27T08:56:25;1097.10;;;998.72;;
4132;SDS011;2080;51.038;7.008;2023-04-27T08:58:52;925.60;;;841.67;;
4132;SDS011;2080;51.038;7.008;2023-04-27T09:01:19;1028.55;;;938.35;;
4132;SDS011;2080;51.038;7.008;2023-04-27T09:03:48;1100.82;;;999.90;;
4132;SDS011;2080;51.038;7.008;2023-04-27T09:06:13;459.33;;;300.70;;
4132;SDS011;2080;51.038;7.008;2023-04-27T09:08:45;450.77;;;301.25;;
4132;SDS011;2080;51.038;7.008;2023-04-27T09:11:12;404.23;;;160.75;;
4132;SDS011;2080;51.038;7.008;2023-04-27T09:13:40;478.20;;;366.53;;
4132;SDS011;2080;51.038;7.008;2023-04-27T09:16:11;410.93;;;183.63;;
4132;SDS011;2080;51.038;7.008;2023-04-27T09:18:40;625.60;;;564.72;;
4132;SDS011;2080;51.038;7.008;2023-04-27T09:21:07;480.65;;;405.52;;
4132;SDS011;2080;51.038;7.008;2023-04-27T09:23:34;752.00;;;682.55;;
4132;SDS011;2080;51.038;7.008;2023-04-27T09:26:02;524.00;;;467.15;;
4132;SDS011;2080;51.038;7.008;2023-04-27T09:28:32;667.78;;;604.15;;
4132;SDS011;2080;51.038;7.008;2023-04-27T09:31:01;464.48;;;323.35;;
4132;SDS011;2080;51.038;7.008;2023-04-27T09:33:31;451.52;;;304.05;;
4132;SDS011;2080;51.038;7.008;2023-04-27T09:35:58;483.88;;;406.95;;
4132;SDS011;2080;51.038;7.008;2023-04-27T09:38:25;582.15;;;523.40;;
4132;SDS011;2080;51.038;7.008;2023-04-27T09:40:52;501.73;;;446.42;;
4132;SDS011;2080;51.038;7.008;2023-04-27T09:43:18;484.17;;;421.42;;
4132;SDS011;2080;51.038;7.008;2023-04-27T09:45:43;572.65;;;514.55;;
4132;SDS011;2080;51.038;7.008;2023-04-27T09:48:11;528.42;;;472.00;;
4132;SDS011;2080;51.038;7.008;2023-04-27T09:50:44;546.97;;;490.03;;
4132;SDS011;2080;51.038;7.008;2023-04-27T09:53:20;596.10;;;536.90;;
4132;SDS011;2080;51.038;7.008;2023-04-27T09:55:57;655.45;;;593.58;;
4132;SDS011;2080;51.038;7.008;2023-04-27T10:01:25;685.05;;;621.00;;
4132;SDS011;2080;51.038;7.008;2023-04-27T10:09:12;705.58;;;640.97;;
4132;SDS011;2080;51.038;7.008;2023-04-27T10:11:39;770.90;;;701.92;;
4132;SDS011;2080;51.038;7.008;2023-04-27T10:14:06;778.50;;;709.17;;
4132;SDS011;2080;51.038;7.008;2023-04-27T10:19:17;705.03;;;640.42;;
4132;SDS011;2080;51.038;7.008;2023-04-27T10:24:37;681.85;;;617.80;;
4132;SDS011;2080;51.038;7.008;2023-04-27T10:27:07;729.75;;;662.90;;
4132;SDS011;2080;51.038;7.008;2023-04-27T10:29:38;685.15;;;620.42;;
4132;SDS011;2080;51.038;7.008;2023-04-27T10:32:12;690.78;;;626.42;;
4132;SDS011;2080;51.038;7.008;2023-04-27T10:34:42;506.37;;;454.20;;
4132;SDS011;2080;51.038;7.008;2023-04-27T10:37:09;435.90;;;346.40;;
4132;SDS011;2080;51.038;7.008;2023-04-27T10:39:41;439.27;;;336.10;;
4132;SDS011;2080;51.038;7.008;2023-04-27T10:42:08;428.90;;;323.63;;
4132;SDS011;2080;51.038;7.008;2023-04-27T10:44:34;768.83;;;700.25;;
4132;SDS011;2080;51.038;7.008;2023-04-27T10:47:11;769.25;;;700.15;;
4132;SDS011;2080;51.038;7.008;2023-04-27T10:49:43;799.38;;;728.45;;
4132;SDS011;2080;51.038;7.008;2023-04-27T10:52:08;822.93;;;750.37;;
4132;SDS011;2080;51.038;7.008;2023-04-27T10:54:34;866.58;;;791.15;;
4132;SDS011;2080;51.038;7.008;2023-04-27T10:57:09;837.30;;;763.63;;
4132;SDS011;2080;51.038;7.008;2023-04-27T10:59:46;836.00;;;762.97;;
4132;SDS011;2080;51.038;7.008;2023-04-27T11:02:16;823.25;;;751.08;;
4132;SDS011;2080;51.038;7.008;2023-04-27T11:04:42;831.10;;;758.42;;
4132;SDS011;2080;51.038;7.008;2023-04-27T11:07:08;841.83;;;768.20;;
4132;SDS011;2080;51.038;7.008;2023-04-27T11:09:38;838.33;;;765.10;;
4132;SDS011;2080;51.038;7.008;2023-04-27T11:12:11;833.33;;;760.08;;
4132;SDS011;2080;51.038;7.008;2023-04-27T11:14:37;788.93;;;718.53;;
4132;SDS011;2080;51.038;7.008;2023-04-27T11:17:03;808.50;;;737.78;;
4132;SDS011;2080;51.038;7.008;2023-04-27T11:19:31;791.15;;;721.38;;
4132;SDS011;2080;51.038;7.008;2023-04-27T11:22:05;811.60;;;740.17;;
4132;SDS011;2080;51.038;7.008;2023-04-27T11:24:31;828.42;;;756.10;;
4132;SDS011;2080;51.038;7.008;2023-04-27T11:26:59;838.90;;;765.47;;
4132;SDS011;2080;51.038;7.008;2023-04-27T11:29:24;848.77;;;775.00;;
4132;SDS011;2080;51.038;7.008;2023-04-27T11:31:50;830.40;;;757.20;;
4132;SDS011;2080;51.038;7.008;2023-04-27T11:36:42;729.60;;;663.35;;
4132;SDS011;2080;51.038;7.008;2023-04-27T11:39:14;842.42;;;769.10;;
4132;SDS011;2080;51.038;7.008;2023-04-27T11:41:42;855.45;;;781.22;;
4132;SDS011;2080;51.038;7.008;2023-04-27T11:44:10;847.97;;;774.00;;
4132;SDS011;2080;51.038;7.008;2023-04-27T11:46:37;718.47;;;652.83;;
4132;SDS011;2080;51.038;7.008;2023-04-27T11:49:03;779.38;;;710.47;;
4132;SDS011;2080;51.038;7.008;2023-04-27T11:51:31;474.80;;;395.97;;
4132;SDS011;2080;51.038;7.008;2023-04-27T11:54:00;647.28;;;586.75;;
4132;SDS011;2080;51.038;7.008;2023-04-27T11:56:32;818.40;;;746.70;;
4132;SDS011;2080;51.038;7.008;2023-04-27T11:59:05;838.55;;;765.17;;
4132;SDS011;2080;51.038;7.008;2023-04-27T12:01:45;838.05;;;764.92;;
4132;SDS011;2080;51.038;7.008;2023-04-27T12:04:11;847.35;;;773.63;;
4132;SDS011;2080;51.038;7.008;2023-04-27T12:06:38;770.92;;;701.95;;
4132;SDS011;2080;51.038;7.008;2023-04-27T12:09:04;805.60;;;734.72;;
4132;SDS011;2080;51.038;7.008;2023-04-27T12:11:30;801.83;;;730.53;;
4132;SDS011;2080;51.038;7.008;2023-04-27T12:13:55;827.77;;;755.13;;
4132;SDS011;2080;51.038;7.008;2023-04-27T12:16:23;806.40;;;734.83;;
4132;SDS011;2080;51.038;7.008;2023-04-27T12:18:53;810.53;;;738.97;;
4132;SDS011;2080;51.038;7.008;2023-04-27T12:21:19;788.47;;;717.65;;
4132;SDS011;2080;51.038;7.008;2023-04-27T12:23:45;789.97;;;719.58;;
4132;SDS011;2080;51.038;7.008;2023-04-27T12:26:10;787.03;;;716.93;;
4132;SDS011;2080;51.038;7.008;2023-04-27T12:28:36;789.03;;;719.22;;
4132;SDS011;2080;51.038;7.008;2023-04-27T12:31:02;826.47;;;754.10;;
4132;SDS011;2080;51.038;7.008;2023-04-27T12:33:28;817.33;;;745.60;;
4132;SDS011;2080;51.038;7.008;2023-04-27T12:35:58;770.10;;;701.47;;
4132;SDS011;2080;51.038;7.008;2023-04-27T12:38:23;748.03;;;680.60;;
4132;SDS011;2080;51.038;7.008;2023-04-27T12:40:49;733.77;;;667.77;;
4132;SDS011;2080;51.038;7.008;2023-04-27T12:43:17;716.03;;;651.13;;
4132;SDS011;2080;51.038;7.008;2023-04-27T12:45:42;811.20;;;739.92;;
4132;SDS011;2080;51.038;7.008;2023-04-27T12:48:07;662.27;;;599.97;;
4132;SDS011;2080;51.038;7.008;2023-04-27T12:50:35;440.33;;;313.93;;
4132;SDS011;2080;51.038;7.008;2023-04-27T12:53:02;330.83;;;79.28;;
4132;SDS011;2080;51.038;7.008;2023-04-27T12:55:31;322.48;;;42.65;;
4132;SDS011;2080;51.038;7.008;2023-04-27T12:57:57;325.27;;;42.58;;
4132;SDS011;2080;51.038;7.008;2023-04-27T13:00:22;400.20;;;221.67;;
4132;SDS011;2080;51.038;7.008;2023-04-27T13:02:51;357.42;;;121.05;;
4132;SDS011;2080;51.038;7.008;2023-04-27T13:05:16;597.17;;;538.67;;
4132;SDS011;2080;51.038;7.008;2023-04-27T13:07:42;444.20;;;331.40;;
4132;SDS011;2080;51.038;7.008;2023-04-27T13:10:07;631.23;;;571.33;;
4132;SDS011;2080;51.038;7.008;2023-04-27T13:12:35;788.25;;;718.88;;
4132;SDS011;2080;51.038;7.008;2023-04-27T13:15:03;831.07;;;758.60;;
4132;SDS011;2080;51.038;7.008;2023-04-27T13:17:29;811.67;;;740.72;;
4132;SDS011;2080;51.038;7.008;2023-04-27T13:19:58;832.53;;;758.58;;
4132;SDS011;2080;51.038;7.008;2023-04-27T13:22:23;856.85;;;783.22;;
4132;SDS011;2080;51.038;7.008;2023-04-27T13:24:49;815.57;;;743.73;;
4132;SDS011;2080;51.038;7.008;2023-04-27T13:27:15;825.37;;;753.47;;
4132;SDS011;2080;51.038;7.008;2023-04-27T13:29:41;729.90;;;662.70;;
4132;SDS011;2080;51.038;7.008;2023-04-27T13:32:06;851.77;;;776.70;;
4132;SDS011;2080;51.038;7.008;2023-04-27T13:34:37;817.83;;;746.03;;
4132;SDS011;2080;51.038;7.008;2023-04-27T13:37:02;807.50;;;736.55;;
4132;SDS011;2080;51.038;7.008;2023-04-27T13:39:28;847.67;;;772.77;;
4132;SDS011;2080;51.038;7.008;2023-04-27T13:41:53;841.80;;;767.47;;
4132;SDS011;2080;51.038;7.008;2023-04-27T13:44:19;870.65;;;794.58;;
4132;SDS011;2080;51.038;7.008;2023-04-27T13:46:44;685.27;;;620.83;;
4132;SDS011;2080;51.038;7.008;2023-04-27T13:49:12;748.77;;;681.23;;
4132;SDS011;2080;51.038;7.008;2023-04-27T13:51:40;691.63;;;626.85;;
4132;SDS011;2080;51.038;7.008;2023-04-27T13:54:05;824.60;;;751.97;;
4132;SDS011;2080;51.038;7.008;2023-04-27T13:56:31;810.30;;;738.27;;
4132;SDS011;2080;51.038;7.008;2023-04-27T13:58:58;835.17;;;761.95;;
4132;SDS011;2080;51.038;7.008;2023-04-27T14:01:24;712.03;;;647.37;;
4132;SDS011;2080;51.038;7.008;2023-04-27T14:03:50;685.08;;;621.10;;
4132;SDS011;2080;51.038;7.008;2023-04-27T14:06:18;840.13;;;767.38;;
4132;SDS011;2080;51.038;7.008;2023-04-27T14:08:44;758.80;;;691.40;;
4132;SDS011;2080;51.038;7.008;2023-04-27T14:11:11;612.30;;;552.92;;
4132;SDS011;2080;51.038;7.008;2023-04-27T14:13:37;703.80;;;639.40;;
4132;SDS011;2080;51.038;7.008;2023-04-27T14:16:02;511.30;;;456.38;;
4132;SDS011;2080;51.038;7.008;2023-04-27T14:18:28;446.58;;;335.73;;
4132;SDS011;2080;51.038;7.008;2023-04-27T14:20:53;313.03;;;49.93;;
4132;SDS011;2080;51.038;7.008;2023-04-27T14:23:19;320.38;;;53.30;;
4132;SDS011;2080;51.038;7.008;2023-04-27T14:25:48;334.50;;;86.18;;
4132;SDS011;2080;51.038;7.008;2023-04-27T14:28:17;356.42;;;113.95;;
4132;SDS011;2080;51.038;7.008;2023-04-27T14:30:42;324.08;;;52.83;;
4132;SDS011;2080;51.038;7.008;2023-04-27T14:33:10;583.10;;;524.70;;
4132;SDS011;2080;51.038;7.008;2023-04-27T14:35:36;320.42;;;51.50;;
4132;SDS011;2080;51.038;7.008;2023-04-27T14:38:03;358.37;;;129.67;;
4132;SDS011;2080;51.038;7.008;2023-04-27T14:40:29;403.90;;;208.40;;
4132;SDS011;2080;51.038;7.008;2023-04-27T14:42:55;477.25;;;421.20;;
4132;SDS011;2080;51.038;7.008;2023-04-27T14:45:22;644.57;;;583.37;;
4132;SDS011;2080;51.038;7.008;2023-04-27T14:47:51;463.33;;;391.33;;
4132;SDS011;2080;51.038;7.008;2023-04-27T14:50:16;312.23;;;58.72;;
4132;SDS011;2080;51.038;7.008;2023-04-27T14:52:44;356.63;;;123.73;;
4132;SDS011;2080;51.038;7.008;2023-04-27T14:55:09;400.40;;;208.93;;
4132;SDS011;2080;51.038;7.008;2023-04-27T14:57:37;370.70;;;150.07;;
4132;SDS011;2080;51.038;7.008;2023-04-27T15:00:05;338.33;;;81.33;;
4132;SDS011;2080;51.038;7.008;2023-04-27T15:02:35;326.08;;;56.70;;
4132;SDS011;2080;51.038;7.008;2023-04-27T15:05:01;332.85;;;72.70;;
4132;SDS011;2080;51.038;7.008;2023-04-27T15:07:26;325.38;;;65.88;;
4132;SDS011;2080;51.038;7.008;2023-04-27T15:09:52;352.40;;;84.93;;
4132;SDS011;2080;51.038;7.008;2023-04-27T15:12:18;375.77;;;169.10;;
4132;SDS011;2080;51.038;7.008;2023-04-27T15:14:46;356.87;;;140.00;;
4132;SDS011;2080;51.038;7.008;2023-04-27T15:17:12;334.73;;;80.53;;
4132;SDS011;2080;51.038;7.008;2023-04-27T15:19:38;409.35;;;199.38;;
4132;SDS011;2080;51.038;7.008;2023-04-27T15:22:03;334.47;;;84.00;;
4132;SDS011;2080;51.038;7.008;2023-04-27T15:24:31;329.17;;;59.93;;
4132;SDS011;2080;51.038;7.008;2023-04-27T15:26:56;490.02;;;432.38;;
4132;SDS011;2080;51.038;7.008;2023-04-27T15:29:22;353.00;;;123.20;;